Time;durP1;ratioP1;P1;durP2;ratioP2;P2;SDS_P1;SDS_P2;PMS_P1;PMS_P2;Temp;Humidity;BMP_temperature;BMP_pressure;BME280_temperature;BME280_humidity;BME280_pressure;Samples;Min_cycle;Max_cycle;Signal;HPM_P1;HPM_P2
2021/01/21 00:01:18;;;;;;;67.4;40.2;;;;;;;-0.84;84.43066;97951.42;;;;
2021/01/21 00:11:15;;;;;;;18.6;10.5;;;;;;;-0.76;84.96191;97937.72;;;;
2021/01/21 00:21:13;;;;;;;12;8.7;;;;;;;0.22;83.89355;97936.34;;;;
2021/01/21 00:31:11;;;;;;;13.5;9.5;;;;;;;0.81;82.2041;97928.92;;;;
2021/01/21 00:41:08;;;;;;;74.7;66.5;;;;;;;0.23;80.50879;97923.91;;;;
2021/01/21 00:51:06;;;;;;;69.9;57.1;;;;;;;-0.61;82.75391;97937.88;;;;
2021/01/21 01:01:04;;;;;;;59.5;45.8;;;;;;;-0.98;83.1416;97920.32;;;;
2021/01/21 01:11:01;;;;;;;12.7;7.8;;;;;;;-0.92;85.25781;97903.45;;;;
2021/01/21 01:20:59;;;;;;;48.6;35.8;;;;;;;-0.99;84.22461;97903.66;;;;
2021/01/21 01:30:57;;;;;;;68.7;46.8;;;;;;;-1.39;84.14551;97904.04;;;;
2021/01/21 01:40:54;;;;;;;93.7;61.5;;;;;;;-1.8;84.75293;97886.08;;;;
2021/01/21 01:50:52;;;;;;;84;66.3;;;;;;;-2.06;85.65234;97877.05;;;;
2021/01/21 02:00:50;;;;;;;84.3;60.5;;;;;;;-2.25;85.63574;97878.35;;;;
2021/01/21 02:10:50;;;;;;;97.3;61.9;;;;;;;-2.42;86.13672;97880.22;;;;
2021/01/21 02:20:44;;;;;;;88;59.7;;;;;;;-2.53;86.81152;97886.4;;;;
2021/01/21 02:30:42;;;;;;;71.5;46.9;;;;;;;-2.67;87.43848;97877.98;;;;
2021/01/21 02:40:39;;;;;;;54.5;43.9;;;;;;;-2.67;88.83301;97880.62;;;;
2021/01/21 02:50:36;;;;;;;76.1;50.7;;;;;;;-2.72;89.67188;97883.2;;;;
2021/01/21 03:00:34;;;;;;;69.5;45;;;;;;;-2.77;89.91309;97870.72;;;;
2021/01/21 03:20:29;;;;;;;102.8;71.9;;;;;;;-2.67;91.4043;97891.17;;;;
2021/01/21 03:30:26;;;;;;;77.1;50.1;;;;;;;-2.79;89.87695;97878.08;;;;
2021/01/21 03:40:23;;;;;;;55.1;41.5;;;;;;;-2.87;89.77051;97890.84;;;;
2021/01/21 03:50:21;;;;;;;70.9;41.4;;;;;;;-3.18;88.69434;97882.42;;;;
2021/01/21 04:00:18;;;;;;;65.1;45.1;;;;;;;-3.34;88.38867;97885.02;;;;
2021/01/21 04:10:15;;;;;;;85.9;53.2;;;;;;;-3.61;88.65918;97879.52;;;;
2021/01/21 04:20:13;;;;;;;64.7;49.9;;;;;;;-3.72;90.80859;97872.45;;;;
2021/01/21 04:30:10;;;;;;;75.3;46.3;;;;;;;-3.77;90.40723;97867.06;;;;
2021/01/21 04:40:07;;;;;;;63.6;41.4;;;;;;;-3.79;90.64258;97858.62;;;;
2021/01/21 04:50:05;;;;;;;46.9;29.4;;;;;;;-3.5;93.31348;97865.48;;;;
2021/01/21 05:00:02;;;;;;;30.1;20.2;;;;;;;-3.44;92.7168;97863.77;;;;
2021/01/21 05:10:00;;;;;;;35.8;23.3;;;;;;;-3.46;91.95215;97856.09;;;;
2021/01/21 05:19:59;;;;;;;26.3;18.4;;;;;;;-3.44;91.94531;97847.96;;;;
2021/01/21 05:29:54;;;;;;;25.6;19.3;;;;;;;-3.48;91.43555;97860;;;;
2021/01/21 05:39:51;;;;;;;22.8;16.9;;;;;;;-3.54;92.0332;97864.38;;;;
2021/01/21 05:49:48;;;;;;;21.1;16.7;;;;;;;-3.59;91.32617;97872.17;;;;
2021/01/21 05:59:46;;;;;;;30.4;18.3;;;;;;;-3.77;90.20117;97869.7;;;;
2021/01/21 06:09:43;;;;;;;38.1;28;;;;;;;-3.7;91.31152;97878.27;;;;
2021/01/21 06:19:41;;;;;;;46.7;28.5;;;;;;;-3.79;91.60938;97877.05;;;;
2021/01/21 06:29:38;;;;;;;30;21.8;;;;;;;-3.79;91.06641;97866.52;;;;
2021/01/21 06:39:35;;;;;;;29.9;17.8;;;;;;;-3.82;90.98242;97888.05;;;;
2021/01/21 06:49:32;;;;;;;28.4;15.3;;;;;;;-3.77;90.03809;97881.03;;;;
2021/01/21 06:59:30;;;;;;;26.1;15.9;;;;;;;-3.68;89.69824;97874.36;;;;
2021/01/21 07:09:27;;;;;;;22.8;15.7;;;;;;;-3.46;90.16797;97881.62;;;;
2021/01/21 07:19:24;;;;;;;28.5;16.8;;;;;;;-3.47;88.55664;97880.05;;;;
2021/01/21 07:29:21;;;;;;;35.3;25.9;;;;;;;-3.47;88.45996;97883.45;;;;
2021/01/21 07:39:19;;;;;;;75.3;55.3;;;;;;;-3.28;88.25977;97890.14;;;;
2021/01/21 07:49:25;;;;;;;99.5;67.3;;;;;;;-3.06;87.89063;97874.47;;;;
2021/01/21 07:59:13;;;;;;;60.5;51.4;;;;;;;-2.82;87.95215;97869.84;;;;
2021/01/21 08:09:12;;;;;;;51.9;37.3;;;;;;;-2.32;88.19922;97878.52;;;;
2021/01/21 08:19:08;;;;;;;50.6;38.3;;;;;;;-1.79;88.39551;97866.56;;;;
2021/01/21 08:29:06;;;;;;;55.5;37.8;;;;;;;-1.29;88.18262;97856.58;;;;
2021/01/21 08:39:03;;;;;;;52.5;42.4;;;;;;;-0.72;87.23633;97850.72;;;;
2021/01/21 08:49:11;;;;;;;70.1;51.8;;;;;;;-0.11;85.44238;97854.59;;;;
2021/01/21 08:58:59;;;;;;;75.8;61.5;;;;;;;0.19;83.35938;97848.63;;;;
2021/01/21 09:08:59;;;;;;;60;44.2;;;;;;;0.74;81.10938;97837.4;;;;
2021/01/21 09:18:54;;;;;;;47.7;41.5;;;;;;;1;82.04199;97826.58;;;;
2021/01/21 09:28:52;;;;;;;46.9;34.9;;;;;;;1.66;80.2373;97837.17;;;;
2021/01/21 09:38:50;;;;;;;43.4;35.9;;;;;;;2.27;79.86426;97842.3;;;;
2021/01/21 09:48:47;;;;;;;61.7;43.9;;;;;;;2.72;77.46777;97825.33;;;;
2021/01/21 09:58:45;;;;;;;45.7;37.7;;;;;;;3.25;76.62207;97829.77;;;;
2021/01/21 10:08:43;;;;;;;58.5;43.2;;;;;;;3.6;74.19434;97825.2;;;;
2021/01/21 10:18:41;;;;;;;62.9;45.3;;;;;;;4.01;73.57715;97823.72;;;;
2021/01/21 10:28:39;;;;;;;68.1;45.9;;;;;;;4.4;72.30664;97810.2;;;;
2021/01/21 10:38:38;;;;;;;60.3;46.1;;;;;;;4.82;70.38281;97815.5;;;;
2021/01/21 10:48:36;;;;;;;56.6;50.5;;;;;;;5.36;68.80566;97790.88;;;;
2021/01/21 10:58:34;;;;;;;58.2;43.9;;;;;;;6.08;66.80371;97783.17;;;;
2021/01/21 11:08:32;;;;;;;57.1;44.4;;;;;;;6.51;64.45898;97778.28;;;;
2021/01/21 11:18:31;;;;;;;47.3;39;;;;;;;6.85;63.84863;97759.84;;;;
2021/01/21 11:28:29;;;;;;;46.9;38.2;;;;;;;7.26;62.80664;97748.14;;;;
2021/01/21 11:38:28;;;;;;;83.5;54.2;;;;;;;7.37;60.9668;97736.06;;;;
2021/01/21 11:48:26;;;;;;;67.7;59;;;;;;;7.52;60.30176;97731.13;;;;
2021/01/21 11:58:25;;;;;;;66.1;53.5;;;;;;;7.54;60.11133;97738.84;;;;
2021/01/21 12:08:23;;;;;;;57.8;51.5;;;;;;;7.49;60.11621;97728.27;;;;
2021/01/21 12:18:22;;;;;;;85.7;66.1;;;;;;;7.42;59.61133;97730.59;;;;
2021/01/21 12:28:21;;;;;;;92.4;81.4;;;;;;;7.51;58.23926;97740.25;;;;
2021/01/21 12:38:19;;;;;;;84.1;70.2;;;;;;;7.53;59.51465;97731.91;;;;
2021/01/21 12:48:18;;;;;;;68.3;52;;;;;;;7.52;58.91504;97719.59;;;;
2021/01/21 12:58:17;;;;;;;64.3;50.2;;;;;;;7.51;59.82617;97715.33;;;;
2021/01/21 13:08:15;;;;;;;53.2;43.5;;;;;;;7.46;59.83105;97724.28;;;;
2021/01/21 13:18:14;;;;;;;46;40.1;;;;;;;7.6;59.87402;97714.27;;;;
2021/01/21 13:28:13;;;;;;;39;34.2;;;;;;;7.68;59.46777;97728.81;;;;
2021/01/21 13:38:11;;;;;;;45.2;33.5;;;;;;;7.47;59.4834;97741.16;;;;
2021/01/21 13:48:10;;;;;;;45.8;29.1;;;;;;;7.32;59.35156;97737.01;;;;
2021/01/21 13:58:09;;;;;;;17.5;14;;;;;;;7.31;59.29297;97745.34;;;;
2021/01/21 14:08:07;;;;;;;10.2;4.6;;;;;;;7.06;59.70801;97752.11;;;;
2021/01/21 14:18:06;;;;;;;9.5;5.3;;;;;;;6.63;61.16504;97751;;;;
2021/01/21 14:28:04;;;;;;;8.4;6.1;;;;;;;6.03;62.31641;97754.66;;;;
2021/01/21 14:38:03;;;;;;;6.7;4.3;;;;;;;5.92;62.83691;97769.31;;;;
2021/01/21 14:48:01;;;;;;;8.6;6.7;;;;;;;5.43;64.53418;97767.24;;;;
2021/01/21 14:58:00;;;;;;;9.3;5.1;;;;;;;5.22;65.4082;97757.19;;;;
2021/01/21 15:08:00;;;;;;;9.8;5.8;;;;;;;4.86;66.30371;97765.77;;;;
2021/01/21 15:17:56;;;;;;;17;10.6;;;;;;;4.39;67.07813;97763.25;;;;
2021/01/21 15:27:54;;;;;;;36;26.3;;;;;;;3.77;68.51855;97781.06;;;;
2021/01/21 15:37:52;;;;;;;28.6;19.6;;;;;;;3.33;69.82813;97791.09;;;;
2021/01/21 15:47:51;;;;;;;25.8;18.6;;;;;;;2.89;71.35547;97794.63;;;;
2021/01/21 15:57:49;;;;;;;98.3;58.4;;;;;;;2.46;72.25879;97790.13;;;;
2021/01/21 16:07:47;;;;;;;59.9;45.2;;;;;;;2.11;73.35059;97782.31;;;;
2021/01/21 16:17:45;;;;;;;45.8;38.2;;;;;;;1.96;75.33008;97778.64;;;;
2021/01/21 16:27:43;;;;;;;24.9;20;;;;;;;2.15;75.39453;97783.36;;;;
2021/01/21 16:37:41;;;;;;;48.6;31.1;;;;;;;2.07;74.68359;97775.94;;;;
2021/01/21 16:47:39;;;;;;;58.5;47.6;;;;;;;1.67;75.57715;97769.69;;;;
2021/01/21 16:57:36;;;;;;;33.4;23.7;;;;;;;1.61;76.44824;97777.95;;;;
2021/01/21 17:07:34;;;;;;;26;16.1;;;;;;;1.56;77.43457;97775.31;;;;
2021/01/21 17:17:32;;;;;;;32.3;25.4;;;;;;;1.54;76.89258;97786.2;;;;
2021/01/21 17:27:30;;;;;;;45.8;35;;;;;;;1.11;77.65039;97773.52;;;;
2021/01/21 17:37:28;;;;;;;36.4;26.3;;;;;;;0.93;78.29199;97769.54;;;;
2021/01/21 17:47:26;;;;;;;44.9;31.8;;;;;;;0.74;79.12891;97766.6;;;;
2021/01/21 17:57:24;;;;;;;41.6;29.9;;;;;;;0.71;78.91309;97769.78;;;;
2021/01/21 18:07:21;;;;;;;38.5;31.1;;;;;;;0.47;79.45313;97771.34;;;;
2021/01/21 18:17:19;;;;;;;37.3;27.4;;;;;;;0.22;79.625;97776.56;;;;
2021/01/21 18:27:17;;;;;;;87.4;57.7;;;;;;;0.01;81.18164;97773.05;;;;
2021/01/21 18:37:14;;;;;;;58.6;32.8;;;;;;;-0.13;81.06836;97770.09;;;;
2021/01/21 18:47:12;;;;;;;46.9;37.5;;;;;;;-0.23;81.9707;97777.19;;;;
2021/01/21 18:57:10;;;;;;;49.8;33.2;;;;;;;-0.3;82.87012;97772.13;;;;
2021/01/21 19:07:07;;;;;;;67;41.5;;;;;;;-0.34;84.05762;97778.98;;;;
2021/01/21 19:17:05;;;;;;;32.4;22.4;;;;;;;-0.38;83.60059;97759.38;;;;
2021/01/21 19:27:02;;;;;;;23.2;18.7;;;;;;;-0.23;83.08008;97764.75;;;;
2021/01/21 19:37:00;;;;;;;34.6;21.7;;;;;;;-0.28;83.28906;97745.41;;;;
2021/01/21 19:47:00;;;;;;;47.4;28.8;;;;;;;-0.16;82.54395;97754.72;;;;
2021/01/21 19:56:56;;;;;;;34.9;25.4;;;;;;;-0.13;82.99023;97738.31;;;;
2021/01/21 20:06:53;;;;;;;40.6;24.8;;;;;;;0.07;82.70801;97731.5;;;;
2021/01/21 20:16:51;;;;;;;22.1;16.6;;;;;;;0.78;82.47461;97722.59;;;;
2021/01/21 20:26:48;;;;;;;16.9;14.2;;;;;;;1.27;79.6123;97728.11;;;;
2021/01/21 20:36:46;;;;;;;25.1;19.8;;;;;;;1.14;79.66406;97735.84;;;;
2021/01/21 20:46:44;;;;;;;23.4;14.2;;;;;;;0.87;78.85449;97730.79;;;;
2021/01/21 20:56:42;;;;;;;35.6;23.1;;;;;;;0.5;79.71191;97726.55;;;;
2021/01/21 21:06:40;;;;;;;37.5;24.4;;;;;;;0.49;79.86621;97722.3;;;;
2021/01/21 21:16:39;;;;;;;32.8;26.2;;;;;;;-0.03;78.72266;97740.19;;;;
2021/01/21 21:26:35;;;;;;;33.6;23.1;;;;;;;-0.55;81.49121;97745.52;;;;
2021/01/21 21:36:34;;;;;;;36.4;27.5;;;;;;;-0.77;81.50488;97752.81;;;;
2021/01/21 21:46:32;;;;;;;59.9;44.5;;;;;;;-1.04;82.87891;97743.09;;;;
2021/01/21 21:56:28;;;;;;;47.5;34.9;;;;;;;-1.19;83.56152;97744.84;;;;
2021/01/21 22:06:26;;;;;;;45.5;34;;;;;;;-0.91;85.10449;97730.5;;;;
2021/01/21 22:16:23;;;;;;;38.7;24.9;;;;;;;-0.98;84.50195;97736.02;;;;
2021/01/21 22:26:21;;;;;;;30.6;23.1;;;;;;;-1.15;84.85059;97722.14;;;;
2021/01/21 22:36:19;;;;;;;26.7;15.2;;;;;;;-1.01;85.78809;97710.08;;;;
2021/01/21 22:46:17;;;;;;;18.6;11.7;;;;;;;-0.97;84.08594;97716.43;;;;
2021/01/21 22:56:14;;;;;;;21.3;13.4;;;;;;;-1.16;85.63672;97697.55;;;;
2021/01/21 23:06:12;;;;;;;22.6;14.7;;;;;;;-0.97;85.80566;97686.57;;;;
2021/01/21 23:16:09;;;;;;;19.9;14.8;;;;;;;-0.76;86.79004;97659.16;;;;
2021/01/21 23:26:09;;;;;;;13;8.8;;;;;;;-0.34;86.25195;97641.34;;;;
2021/01/21 23:36:05;;;;;;;51.2;36.8;;;;;;;-0.69;82.66211;97633.27;;;;
2021/01/21 23:46:02;;;;;;;37;25.1;;;;;;;-1.01;84.5625;97618.3;;;;
2021/01/21 23:56:01;;;;;;;25.2;14.9;;;;;;;-0.95;84.79102;97594.55;;;;
